createdAt,value
2023-01-15T00:00:16.965Z,14.10
2023-01-15T00:02:45.182Z,14.10
2023-01-15T00:05:13.356Z,14.00
2023-01-15T00:07:41.445Z,14.10
2023-01-15T00:10:11.795Z,14.10
2023-01-15T00:12:39.925Z,14.10
2023-01-15T00:15:09.158Z,14.10
2023-01-15T00:17:38.713Z,14.10
2023-01-15T00:20:08.172Z,14.00
2023-01-15T00:22:36.276Z,14.10
2023-01-15T00:25:33.663Z,14.10
2023-01-15T00:28:02.026Z,14.10
2023-01-15T00:30:30.277Z,14.10
2023-01-15T00:33:00.379Z,14.10
2023-01-15T00:35:29.784Z,14.10
2023-01-15T00:37:57.941Z,14.10
2023-01-15T00:40:27.206Z,14.10
2023-01-15T00:42:55.444Z,14.10
2023-01-15T00:45:23.659Z,14.10
2023-01-15T00:47:52.241Z,14.10
2023-01-15T00:50:21.884Z,14.10
2023-01-15T00:52:49.996Z,14.10
2023-01-15T00:55:18.264Z,14.10
2023-01-15T00:57:46.380Z,14.10
2023-01-15T01:00:15.432Z,14.10
2023-01-15T01:02:43.583Z,14.20
2023-01-15T01:05:11.689Z,14.20
2023-01-15T01:07:41.142Z,14.20
2023-01-15T01:10:10.530Z,14.20
2023-01-15T01:12:38.727Z,14.20
2023-01-15T01:15:09.882Z,14.20
2023-01-15T01:17:38.701Z,14.20
2023-01-15T01:20:07.897Z,14.20
2023-01-15T01:22:36.840Z,14.20
2023-01-15T01:25:07.645Z,14.20
2023-01-15T01:27:35.823Z,14.20
2023-01-15T01:30:04.131Z,14.20
2023-01-15T01:32:34.383Z,14.20
2023-01-15T01:35:02.951Z,14.20
2023-01-15T01:37:31.164Z,14.20
2023-01-15T01:39:59.296Z,14.20
2023-01-15T01:42:28.885Z,14.20
2023-01-15T01:45:02.815Z,14.20
2023-01-15T01:47:31.262Z,14.20
2023-01-15T01:50:01.748Z,14.20
2023-01-15T01:52:32.644Z,14.20
2023-01-15T01:55:00.890Z,14.20
2023-01-15T01:57:30.368Z,14.20
2023-01-15T01:59:58.862Z,14.10
2023-01-15T02:02:27.057Z,14.10
2023-01-15T02:04:55.304Z,14.10
2023-01-15T02:07:23.449Z,14.10
2023-01-15T02:09:51.573Z,14.10
2023-01-15T02:12:24.716Z,14.10
2023-01-15T02:15:00.020Z,14.00
2023-01-15T02:17:34.550Z,14.00
2023-01-15T02:20:17.576Z,14.00
2023-01-15T02:22:54.547Z,14.00
2023-01-15T02:25:27.149Z,14.00
2023-01-15T02:27:59.008Z,14.00
2023-01-15T02:30:30.467Z,14.00
2023-01-15T02:33:01.527Z,14.00
2023-01-15T02:35:32.078Z,13.90
2023-01-15T02:38:04.020Z,13.90
2023-01-15T02:40:32.290Z,13.90
2023-01-15T02:43:02.591Z,13.90
2023-01-15T02:45:33.065Z,13.90
2023-01-15T02:48:09.818Z,13.90
2023-01-15T02:50:40.380Z,13.90
2023-01-15T02:53:11.177Z,13.90
2023-01-15T02:55:44.008Z,13.90
2023-01-15T02:58:16.012Z,13.90
2023-01-15T03:00:49.365Z,13.80
2023-01-15T03:03:22.127Z,13.80
2023-01-15T03:05:53.502Z,13.70
2023-01-15T03:08:21.710Z,13.60
2023-01-15T03:10:53.377Z,13.60
2023-01-15T03:13:28.307Z,13.40
2023-01-15T03:16:19.543Z,13.30
2023-01-15T03:18:51.509Z,13.20
2023-01-15T03:21:23.713Z,13.10
2023-01-15T03:23:54.975Z,13.00
2023-01-15T03:26:27.076Z,12.90
2023-01-15T03:28:57.389Z,12.80
2023-01-15T03:31:26.035Z,12.80
2023-01-15T03:33:55.239Z,12.70
2023-01-15T03:36:24.741Z,12.70
2023-01-15T03:38:52.863Z,12.70
2023-01-15T03:41:49.000Z,12.60
2023-01-15T03:44:27.492Z,12.60
2023-01-15T03:47:02.604Z,12.60
2023-01-15T03:49:41.024Z,12.50
2023-01-15T03:52:21.023Z,12.50
2023-01-15T03:54:54.588Z,12.50
2023-01-15T03:57:29.235Z,12.50
2023-01-15T04:00:00.296Z,12.40
2023-01-15T04:02:32.738Z,12.40
2023-01-15T04:05:00.965Z,12.40
2023-01-15T04:07:30.737Z,12.40
2023-01-15T04:09:59.234Z,12.40
2023-01-15T04:12:28.848Z,12.30
2023-01-15T04:14:59.345Z,12.30
2023-01-15T04:17:27.506Z,12.30
2023-01-15T04:19:55.698Z,12.30
2023-01-15T04:22:25.062Z,12.30
2023-01-15T04:24:54.972Z,12.20
2023-01-15T04:27:23.168Z,12.20
2023-01-15T04:29:51.351Z,12.20
2023-01-15T04:32:20.800Z,12.20
2023-01-15T04:34:48.940Z,12.10
2023-01-15T04:37:18.080Z,12.10
2023-01-15T04:39:47.412Z,12.00
2023-01-15T04:42:33.116Z,11.90
2023-01-15T04:45:01.240Z,11.90
2023-01-15T04:47:32.638Z,11.80
2023-01-15T04:50:00.758Z,11.80
2023-01-15T04:52:28.912Z,11.80
2023-01-15T04:54:57.268Z,11.70
2023-01-15T04:57:25.413Z,11.70
2023-01-15T04:59:53.564Z,11.60
2023-01-15T05:02:21.849Z,11.60
2023-01-15T05:04:51.679Z,11.50
2023-01-15T05:07:19.941Z,11.50
2023-01-15T05:09:51.564Z,11.50
2023-01-15T05:12:19.729Z,11.40
2023-01-15T05:14:47.949Z,11.40
2023-01-15T05:17:16.096Z,11.40
2023-01-15T05:19:44.268Z,11.30
2023-01-15T05:22:13.744Z,11.30
2023-01-15T05:24:42.076Z,11.30
2023-01-15T05:27:10.176Z,11.20
2023-01-15T05:29:38.758Z,11.20
2023-01-15T05:32:09.535Z,11.20
2023-01-15T05:34:38.045Z,11.20
2023-01-15T05:37:06.214Z,11.10
2023-01-15T05:39:35.804Z,11.10
2023-01-15T05:42:03.992Z,11.10
2023-01-15T05:44:32.652Z,11.10
2023-01-15T05:47:03.227Z,11.00
2023-01-15T05:49:32.035Z,11.00
2023-01-15T05:52:01.369Z,11.00
2023-01-15T05:54:30.899Z,11.00
2023-01-15T05:57:01.330Z,11.00
2023-01-15T05:59:30.968Z,10.90
2023-01-15T06:01:59.219Z,10.90
2023-01-15T06:04:27.368Z,10.90
2023-01-15T06:06:56.459Z,10.80
2023-01-15T06:09:24.750Z,10.80
2023-01-15T06:11:54.009Z,10.80
2023-01-15T06:14:23.577Z,10.80
2023-01-15T06:16:51.790Z,10.80
2023-01-15T06:19:20.005Z,10.80
2023-01-15T06:21:48.986Z,10.80
2023-01-15T06:24:17.962Z,10.80
2023-01-15T06:26:46.144Z,10.80
2023-01-15T06:29:17.564Z,10.80
2023-01-15T06:31:47.861Z,10.80
2023-01-15T06:34:15.995Z,10.80
2023-01-15T06:36:44.136Z,10.70
2023-01-15T06:39:12.269Z,10.70
2023-01-15T06:41:58.259Z,10.70
2023-01-15T06:44:44.051Z,10.60
2023-01-15T06:47:24.664Z,10.60
2023-01-15T06:49:55.074Z,10.60
2023-01-15T06:52:23.437Z,10.50
2023-01-15T06:54:52.173Z,10.50
2023-01-15T06:57:20.498Z,10.40
2023-01-15T06:59:48.814Z,10.40
2023-01-15T07:02:18.777Z,10.40
2023-01-15T07:04:47.764Z,10.40
2023-01-15T07:07:16.175Z,10.40
2023-01-15T07:09:44.484Z,10.40
2023-01-15T07:12:12.676Z,10.30
2023-01-15T07:14:40.842Z,10.30
2023-01-15T07:17:09.289Z,10.30
2023-01-15T07:19:38.817Z,10.40
2023-01-15T07:22:07.150Z,10.40
2023-01-15T07:24:35.477Z,10.30
2023-01-15T07:27:03.638Z,10.30
2023-01-15T07:29:31.845Z,10.30
2023-01-15T07:31:59.962Z,10.30
2023-01-15T07:34:28.075Z,10.30
2023-01-15T07:36:57.569Z,10.30
2023-01-15T07:39:25.705Z,10.40
2023-01-15T07:42:11.570Z,10.30
2023-01-15T07:44:57.425Z,10.30
2023-01-15T07:47:44.195Z,10.40
2023-01-15T07:50:16.874Z,10.40
2023-01-15T07:52:46.486Z,10.40
2023-01-15T07:55:14.704Z,10.40
2023-01-15T07:57:43.013Z,10.40
2023-01-15T08:00:13.914Z,10.30
2023-01-15T08:02:42.243Z,10.30
2023-01-15T08:05:11.615Z,10.30
2023-01-15T08:07:40.473Z,10.30
2023-01-15T08:10:11.953Z,10.30
2023-01-15T08:12:57.593Z,10.30
2023-01-15T08:15:26.130Z,10.30
2023-01-15T08:17:54.333Z,10.20
2023-01-15T08:20:25.425Z,10.20
2023-01-15T08:22:53.836Z,10.20
2023-01-15T08:25:26.597Z,10.20
2023-01-15T08:27:55.074Z,10.20
2023-01-15T08:30:24.988Z,10.20
2023-01-15T08:32:53.162Z,10.20
2023-01-15T08:35:21.305Z,10.20
2023-01-15T08:37:49.550Z,10.20
2023-01-15T08:40:18.387Z,10.20
2023-01-15T08:42:47.867Z,10.20
2023-01-15T08:45:16.218Z,10.20
2023-01-15T08:47:44.411Z,10.20
2023-01-15T08:50:12.964Z,10.20
2023-01-15T08:52:41.595Z,10.20
2023-01-15T08:55:10.256Z,10.20
2023-01-15T08:57:38.628Z,10.20
2023-01-15T09:00:10.991Z,10.20
2023-01-15T09:02:39.634Z,10.20
2023-01-15T09:05:08.945Z,10.10
2023-01-15T09:07:37.309Z,10.10
2023-01-15T09:10:06.889Z,10.10
2023-01-15T09:12:35.069Z,10.10
2023-01-15T09:15:03.577Z,10.10
2023-01-15T09:17:33.890Z,10.10
2023-01-15T09:20:03.135Z,10.10
2023-01-15T09:22:31.516Z,10.10
2023-01-15T09:24:59.804Z,10.10
2023-01-15T09:27:28.062Z,10.10
2023-01-15T09:29:59.414Z,10.10
2023-01-15T09:32:32.441Z,10.20
2023-01-15T09:35:02.399Z,10.10
2023-01-15T09:37:30.605Z,10.10
2023-01-15T09:39:58.739Z,10.10
2023-01-15T09:42:38.319Z,10.10
2023-01-15T09:45:17.309Z,10.10
2023-01-15T09:47:55.641Z,10.10
2023-01-15T09:50:32.602Z,10.10
2023-01-15T09:53:23.623Z,10.10
2023-01-15T09:55:51.990Z,10.00
2023-01-15T09:58:21.659Z,10.10
2023-01-15T10:00:51.707Z,10.10
2023-01-15T10:03:29.080Z,10.10
2023-01-15T10:06:07.689Z,10.10
2023-01-15T10:08:38.132Z,10.10
2023-01-15T10:11:22.153Z,10.20
2023-01-15T10:13:51.916Z,10.20
2023-01-15T10:16:22.034Z,10.20
2023-01-15T10:18:50.294Z,10.20
2023-01-15T10:21:30.437Z,10.20
2023-01-15T10:24:03.550Z,10.20
2023-01-15T10:26:38.080Z,10.20
2023-01-15T10:29:13.192Z,10.10
2023-01-15T10:31:54.036Z,10.10
2023-01-15T10:34:58.695Z,10.00
2023-01-15T10:37:31.881Z,9.90
2023-01-15T10:40:39.896Z,9.80
2023-01-15T10:43:13.194Z,9.70
2023-01-15T10:45:44.208Z,9.60
2023-01-15T10:48:25.312Z,9.50
2023-01-15T10:50:53.565Z,9.40
2023-01-15T10:53:30.411Z,9.40
2023-01-15T10:56:02.044Z,9.30
2023-01-15T10:58:35.254Z,9.20
2023-01-15T11:01:06.990Z,9.10
2023-01-15T11:03:38.422Z,9.10
2023-01-15T11:06:08.936Z,9.00
2023-01-15T11:12:02.932Z,8.90
2023-01-15T11:14:53.626Z,8.90
2023-01-15T11:17:39.545Z,8.80
2023-01-15T11:20:17.353Z,8.80
2023-01-15T11:22:45.555Z,8.70
2023-01-15T11:25:15.320Z,8.70
2023-01-15T11:27:43.738Z,8.70
2023-01-15T11:30:27.674Z,8.70
2023-01-15T11:32:57.691Z,8.60
2023-01-15T11:35:26.100Z,8.60
2023-01-15T11:38:04.695Z,8.60
2023-01-15T11:40:34.342Z,8.60
2023-01-15T11:43:20.289Z,8.50
2023-01-15T11:46:07.171Z,8.50
2023-01-15T11:48:54.246Z,8.50
2023-01-15T11:51:22.435Z,8.50
2023-01-15T11:53:52.927Z,8.50
2023-01-15T11:56:25.408Z,8.40
2023-01-15T11:58:55.344Z,8.40
2023-01-15T12:01:26.754Z,8.40
2023-01-15T12:03:55.304Z,8.40
2023-01-15T12:06:23.742Z,8.40
2023-01-15T12:08:52.760Z,8.40
2023-01-15T12:11:51.506Z,8.40
2023-01-15T12:14:40.242Z,8.40
2023-01-15T12:17:19.913Z,8.40
2023-01-15T12:19:51.905Z,8.30
2023-01-15T12:22:29.851Z,8.30
2023-01-15T12:25:24.443Z,8.30
2023-01-15T12:27:58.337Z,8.20
2023-01-15T12:30:32.775Z,8.20
2023-01-15T12:33:12.845Z,8.20
2023-01-15T12:35:44.044Z,8.30
2023-01-15T12:38:17.591Z,8.30
2023-01-15T12:40:49.162Z,8.30
2023-01-15T12:43:42.184Z,8.40
2023-01-15T12:46:13.850Z,8.50
2023-01-15T12:48:47.076Z,8.70
2023-01-15T12:51:18.420Z,8.90
2023-01-15T12:53:48.245Z,9.10
2023-01-15T12:56:22.431Z,9.30
2023-01-15T12:58:54.297Z,9.60
2023-01-15T13:01:25.772Z,9.80
2023-01-15T13:04:06.999Z,10.10
2023-01-15T13:06:35.806Z,10.40
2023-01-15T13:09:06.641Z,10.70
2023-01-15T13:11:34.856Z,11.00
2023-01-15T13:14:04.585Z,11.20
2023-01-15T13:16:40.743Z,11.50
2023-01-15T13:19:28.314Z,11.70
2023-01-15T13:21:59.094Z,12.00
2023-01-15T13:24:56.660Z,12.20
2023-01-15T13:27:32.476Z,12.40
2023-01-15T13:30:17.077Z,12.60
2023-01-15T13:32:46.913Z,12.60
2023-01-15T13:35:20.665Z,12.60
2023-01-15T13:37:50.629Z,12.60
2023-01-15T13:40:23.954Z,12.40
2023-01-15T13:42:52.288Z,12.30
2023-01-15T13:45:40.285Z,12.10
2023-01-15T13:48:12.158Z,12.00
2023-01-15T13:50:42.630Z,11.90
2023-01-15T13:53:18.616Z,11.80
2023-01-15T13:55:52.698Z,11.70
2023-01-15T13:58:27.033Z,11.60
2023-01-15T14:01:23.396Z,11.50
2023-01-15T14:04:00.421Z,11.40
2023-01-15T14:06:41.893Z,11.40
2023-01-15T14:09:13.255Z,11.30
2023-01-15T14:11:50.036Z,11.30
2023-01-15T14:14:59.949Z,11.20
2023-01-15T14:18:01.967Z,11.30
2023-01-15T14:20:54.645Z,11.30
2023-01-15T14:23:45.079Z,11.50
2023-01-15T14:26:17.466Z,11.70
2023-01-15T14:29:02.587Z,11.90
2023-01-15T14:31:50.643Z,12.20
2023-01-15T14:34:21.538Z,12.60
2023-01-15T14:36:54.251Z,12.80
2023-01-15T14:39:29.617Z,13.00
2023-01-15T14:42:19.910Z,13.20
2023-01-15T14:44:48.031Z,13.20
2023-01-15T14:47:27.335Z,13.20
2023-01-15T14:50:20.233Z,13.10
2023-01-15T14:52:49.077Z,13.00
2023-01-15T14:55:18.264Z,12.80
2023-01-15T14:57:49.874Z,12.60
2023-01-15T15:00:21.396Z,12.40
2023-01-15T15:02:50.082Z,12.20
2023-01-15T15:05:21.730Z,12.10
2023-01-15T15:07:53.126Z,12.10
2023-01-15T15:10:25.993Z,12.00
2023-01-15T15:13:02.143Z,12.00
2023-01-15T15:15:40.034Z,12.00
2023-01-15T15:18:14.772Z,11.90
2023-01-15T15:20:51.766Z,11.80
2023-01-15T15:23:25.376Z,11.80
2023-01-15T15:25:57.933Z,11.70
2023-01-15T15:28:26.173Z,11.60
2023-01-15T15:30:55.361Z,11.60
2023-01-15T15:33:25.757Z,11.50
2023-01-15T15:35:56.677Z,11.40
2023-01-15T15:38:25.779Z,11.40
2023-01-15T15:40:55.548Z,11.30
2023-01-15T15:43:45.339Z,11.20
2023-01-15T15:46:48.062Z,11.20
2023-01-15T15:49:16.360Z,11.10
2023-01-15T15:51:49.501Z,11.10
2023-01-15T15:54:19.763Z,11.00
2023-01-15T15:56:59.158Z,10.90
2023-01-15T15:59:33.079Z,10.90
2023-01-15T16:02:08.841Z,10.80
2023-01-15T16:04:37.099Z,10.80
2023-01-15T16:07:15.204Z,10.70
2023-01-15T16:09:49.130Z,10.70
2023-01-15T16:12:17.378Z,10.70
2023-01-15T16:14:45.539Z,10.60
2023-01-15T16:17:13.870Z,10.60
2023-01-15T16:19:42.275Z,10.60
2023-01-15T16:22:12.510Z,10.60
2023-01-15T16:24:42.010Z,10.50
2023-01-15T16:27:16.843Z,10.50
2023-01-15T16:29:49.439Z,10.50
2023-01-15T16:32:25.229Z,10.50
2023-01-15T16:35:01.378Z,10.50
2023-01-15T16:37:30.624Z,10.60
2023-01-15T16:40:00.296Z,10.50
2023-01-15T16:42:31.230Z,10.50
2023-01-15T16:45:01.163Z,10.50
2023-01-15T16:47:30.321Z,10.50
2023-01-15T16:50:29.981Z,10.50
2023-01-15T16:53:00.324Z,10.50
2023-01-15T16:55:44.604Z,10.50
2023-01-15T16:58:32.876Z,10.50
2023-01-15T17:01:02.146Z,10.60
2023-01-15T17:03:31.211Z,10.60
2023-01-15T17:06:01.225Z,10.60
2023-01-15T17:08:33.399Z,10.60
2023-01-15T17:11:03.827Z,10.60
2023-01-15T17:13:34.800Z,10.60
2023-01-15T17:16:19.921Z,10.60
2023-01-15T17:18:48.603Z,10.60
2023-01-15T17:21:18.518Z,10.60
2023-01-15T17:23:46.865Z,10.60
2023-01-15T17:26:19.313Z,10.80
2023-01-15T17:28:47.711Z,10.60
2023-01-15T17:31:24.370Z,10.60
2023-01-15T17:33:52.874Z,10.60
2023-01-15T17:36:21.145Z,10.60
2023-01-15T17:38:49.478Z,10.60
2023-01-15T17:41:20.170Z,10.60
2023-01-15T17:43:48.375Z,10.70
2023-01-15T17:46:16.898Z,10.70
2023-01-15T17:48:45.166Z,10.70
2023-01-15T17:51:14.791Z,10.70
2023-01-15T17:53:43.067Z,10.70
2023-01-15T17:56:28.807Z,10.80
2023-01-15T17:59:27.511Z,10.80
2023-01-15T18:02:13.358Z,10.80
2023-01-15T18:05:00.831Z,10.70
2023-01-15T18:07:33.728Z,10.80
2023-01-15T18:10:01.933Z,10.80
2023-01-15T18:12:30.954Z,10.70
2023-01-15T18:15:00.507Z,10.70
2023-01-15T18:17:29.230Z,10.70
2023-01-15T18:19:57.486Z,10.70
2023-01-15T18:22:25.766Z,10.60
2023-01-15T18:24:54.002Z,10.60
2023-01-15T18:27:22.133Z,10.60
2023-01-15T18:29:50.389Z,10.60
2023-01-15T18:32:20.611Z,10.60
2023-01-15T18:34:48.937Z,10.60
2023-01-15T18:37:17.119Z,10.50
2023-01-15T18:39:45.242Z,10.50
2023-01-15T18:42:31.210Z,10.50
2023-01-15T18:45:17.326Z,10.50
2023-01-15T18:47:46.762Z,10.50
2023-01-15T18:50:15.328Z,10.40
2023-01-15T18:52:52.393Z,10.40
2023-01-15T18:55:21.411Z,10.40
2023-01-15T18:57:49.586Z,10.30
2023-01-15T19:00:18.806Z,10.30
2023-01-15T19:02:48.417Z,10.30
2023-01-15T19:05:17.241Z,10.20
2023-01-15T19:07:45.633Z,10.20
2023-01-15T19:10:14.547Z,10.20
2023-01-15T19:12:43.725Z,10.20
2023-01-15T19:15:31.909Z,10.20
2023-01-15T19:18:19.201Z,10.20
2023-01-15T19:20:47.487Z,10.10
2023-01-15T19:23:15.709Z,10.10
2023-01-15T19:25:45.560Z,10.10
2023-01-15T19:28:15.869Z,10.10
2023-01-15T19:31:04.562Z,10.10
2023-01-15T19:33:34.513Z,10.10
2023-01-15T19:36:02.703Z,10.10
2023-01-15T19:38:33.101Z,10.10
2023-01-15T19:41:21.781Z,10.10
2023-01-15T19:44:07.901Z,10.10
2023-01-15T19:46:53.553Z,10.10
2023-01-15T19:49:41.004Z,10.20
2023-01-15T19:52:26.248Z,10.20
2023-01-15T19:54:57.164Z,10.10
2023-01-15T19:57:25.410Z,10.20
2023-01-15T19:59:53.867Z,10.20
2023-01-15T20:02:22.068Z,10.20
2023-01-15T20:04:51.764Z,10.10
2023-01-15T20:07:19.960Z,10.20
2023-01-15T20:09:48.091Z,10.20
2023-01-15T20:12:34.214Z,10.20
2023-01-15T20:15:02.418Z,10.20
2023-01-15T20:17:30.790Z,10.20
2023-01-15T20:20:00.537Z,10.20
2023-01-15T20:22:31.137Z,10.10
2023-01-15T20:24:59.359Z,10.10
2023-01-15T20:27:27.619Z,10.10
2023-01-15T20:29:56.039Z,10.10
2023-01-15T20:32:24.351Z,10.10
2023-01-15T20:34:52.664Z,10.10
2023-01-15T20:37:23.238Z,10.10
2023-01-15T20:39:52.312Z,10.10
2023-01-15T20:42:38.023Z,10.00
2023-01-15T20:45:11.198Z,10.00
2023-01-15T20:47:57.789Z,10.00
2023-01-15T20:50:27.771Z,10.00
2023-01-15T20:52:59.764Z,10.00
2023-01-15T20:55:32.525Z,10.00
2023-01-15T20:58:02.407Z,10.00
2023-01-15T21:00:30.666Z,10.00
2023-01-15T21:03:01.775Z,10.00
2023-01-15T21:05:30.886Z,9.90
2023-01-15T21:08:00.403Z,9.90
2023-01-15T21:10:29.003Z,9.90
2023-01-15T21:12:57.247Z,9.90
2023-01-15T21:15:25.506Z,9.90
2023-01-15T21:17:53.662Z,9.90
2023-01-15T21:20:21.912Z,9.90
2023-01-15T21:22:50.088Z,9.90
2023-01-15T21:25:19.803Z,9.90
2023-01-15T21:27:47.974Z,9.90
2023-01-15T21:30:16.407Z,9.90
2023-01-15T21:32:46.406Z,9.90
2023-01-15T21:35:14.736Z,9.90
2023-01-15T21:37:42.904Z,9.90
2023-01-15T21:40:12.865Z,9.90
2023-01-15T21:42:59.885Z,9.90
2023-01-15T21:45:28.121Z,9.90
2023-01-15T21:47:56.610Z,9.90
2023-01-15T21:50:24.777Z,9.90
2023-01-15T21:52:53.030Z,9.90
2023-01-15T21:55:21.211Z,9.90
2023-01-15T21:57:51.428Z,9.90
2023-01-15T22:00:20.689Z,9.90
2023-01-15T22:02:49.274Z,9.90
2023-01-15T22:05:17.933Z,9.90
2023-01-15T22:07:46.033Z,9.80
2023-01-15T22:10:14.283Z,9.80
2023-01-15T22:12:43.166Z,9.80
2023-01-15T22:15:13.192Z,9.80
2023-01-15T22:17:41.484Z,9.80
2023-01-15T22:20:12.492Z,9.80
2023-01-15T22:22:40.756Z,9.80
2023-01-15T22:25:13.250Z,9.80
2023-01-15T22:27:42.419Z,9.80
2023-01-15T22:30:15.456Z,9.70
2023-01-15T22:32:43.717Z,9.70
2023-01-15T22:35:12.130Z,9.70
2023-01-15T22:37:40.628Z,9.70
2023-01-15T22:40:10.670Z,9.70
2023-01-15T22:42:39.359Z,9.70
2023-01-15T22:45:08.279Z,9.70
2023-01-15T22:47:37.855Z,9.70
2023-01-15T22:50:06.809Z,9.70
2023-01-15T22:52:35.465Z,9.70
2023-01-15T22:55:03.737Z,9.70
2023-01-15T22:57:32.176Z,9.70
2023-01-15T23:00:00.370Z,9.70
2023-01-15T23:02:46.272Z,9.70
2023-01-15T23:05:16.065Z,9.70
2023-01-15T23:07:44.372Z,9.80
2023-01-15T23:10:13.205Z,9.80
2023-01-15T23:12:41.420Z,9.80
2023-01-15T23:15:12.388Z,9.80
2023-01-15T23:17:40.838Z,9.80
2023-01-15T23:20:10.480Z,9.80
2023-01-15T23:22:40.106Z,9.80
2023-01-15T23:25:09.914Z,9.80
2023-01-15T23:27:38.114Z,9.80
2023-01-15T23:30:07.867Z,9.90
2023-01-15T23:32:36.048Z,9.90
2023-01-15T23:35:04.975Z,9.90
2023-01-15T23:37:33.260Z,9.90
2023-01-15T23:40:02.798Z,9.90
2023-01-15T23:42:48.719Z,9.90
2023-01-15T23:45:34.630Z,9.90
2023-01-15T23:48:02.944Z,9.90
2023-01-15T23:50:31.194Z,9.90
2023-01-15T23:52:59.467Z,9.90
2023-01-15T23:55:29.427Z,9.90
2023-01-15T23:57:57.658Z,9.90
